createdAt,value
2018-03-03T00:01:14.206Z,-0.50
2018-03-03T00:03:43.179Z,-0.50
2018-03-03T00:06:10.658Z,-0.50
2018-03-03T00:08:38.088Z,-0.50
2018-03-03T00:11:05.542Z,-0.50
2018-03-03T00:13:32.998Z,-0.40
2018-03-03T00:16:00.463Z,-0.30
2018-03-03T00:18:27.927Z,-0.30
2018-03-03T00:20:55.411Z,-0.20
2018-03-03T00:23:22.870Z,-0.20
2018-03-03T00:25:50.325Z,-0.20
2018-03-03T00:28:17.788Z,-0.10
2018-03-03T00:30:45.234Z,-0.10
2018-03-03T00:33:12.717Z,-0.10
2018-03-03T00:35:40.179Z,-0.10
2018-03-03T00:38:07.651Z,-0.10
2018-03-03T00:40:35.126Z,-0.10
2018-03-03T00:43:03.366Z,-0.10
2018-03-03T00:45:30.829Z,-0.10
2018-03-03T00:47:58.301Z,-0.10
2018-03-03T00:50:25.873Z,-0.10
2018-03-03T00:52:53.340Z,-0.10
2018-03-03T00:55:22.306Z,-0.10
2018-03-03T00:57:49.760Z,-0.10
2018-03-03T01:00:17.222Z,0.00
2018-03-03T01:02:44.683Z,0.00
2018-03-03T01:05:12.160Z,0.00
2018-03-03T01:07:44.912Z,0.10
2018-03-03T01:10:12.370Z,0.10
2018-03-03T01:12:39.831Z,0.00
2018-03-03T01:15:07.310Z,0.00
2018-03-03T01:17:34.759Z,0.00
2018-03-03T01:20:02.441Z,-0.10
2018-03-03T01:22:29.904Z,-0.10
2018-03-03T01:24:57.342Z,-0.20
2018-03-03T01:27:24.806Z,-0.20
2018-03-03T01:29:52.262Z,-0.20
2018-03-03T01:32:19.750Z,-0.30
2018-03-03T01:34:47.216Z,-0.30
2018-03-03T01:37:14.664Z,-0.30
2018-03-03T01:39:42.117Z,-0.30
2018-03-03T01:42:09.574Z,-0.30
2018-03-03T01:44:37.034Z,-0.30
2018-03-03T01:47:04.484Z,-0.20
2018-03-03T01:49:31.937Z,-0.20
2018-03-03T01:51:59.413Z,-0.20
2018-03-03T01:54:26.878Z,-0.20
2018-03-03T01:56:54.341Z,-0.10
2018-03-03T01:59:21.786Z,-0.10
2018-03-03T02:01:50.012Z,-0.10
2018-03-03T02:04:17.477Z,-0.10
2018-03-03T02:06:44.934Z,-0.10
2018-03-03T02:09:12.395Z,-0.10
2018-03-03T02:11:39.861Z,-0.10
2018-03-03T02:14:07.329Z,-0.10
2018-03-03T02:16:35.757Z,-0.10
2018-03-03T02:19:03.216Z,-0.10
2018-03-03T02:21:31.450Z,-0.10
2018-03-03T02:23:58.902Z,-0.10
2018-03-03T02:26:26.362Z,-0.10
2018-03-03T02:28:53.808Z,-0.10
2018-03-03T02:31:21.291Z,-0.10
2018-03-03T02:33:48.736Z,-0.10
2018-03-03T02:36:16.180Z,-0.10
2018-03-03T02:38:43.652Z,-0.10
2018-03-03T02:41:11.124Z,-0.10
2018-03-03T02:43:38.606Z,-0.10
2018-03-03T02:46:06.142Z,-0.10
2018-03-03T02:48:33.602Z,-0.10
2018-03-03T02:51:01.070Z,-0.10
2018-03-03T02:53:28.523Z,-0.10
2018-03-03T02:55:55.999Z,-0.10
2018-03-03T02:58:23.455Z,-0.10
2018-03-03T03:00:51.232Z,-0.10
2018-03-03T03:03:18.699Z,0.00
2018-03-03T03:05:46.166Z,0.00
2018-03-03T03:08:13.613Z,0.00
2018-03-03T03:10:41.100Z,0.10
2018-03-03T03:13:08.790Z,0.10
2018-03-03T03:15:37.014Z,0.00
2018-03-03T03:18:04.464Z,0.00
2018-03-03T03:20:31.925Z,0.00
2018-03-03T03:22:59.361Z,0.00
2018-03-03T03:25:26.995Z,-0.10
2018-03-03T03:27:54.449Z,-0.10
2018-03-03T03:30:21.909Z,-0.20
2018-03-03T03:32:49.396Z,-0.20
2018-03-03T03:35:16.855Z,-0.30
2018-03-03T03:37:44.325Z,-0.30
2018-03-03T03:40:11.777Z,-0.30
2018-03-03T03:42:39.506Z,-0.30
2018-03-03T03:45:07.169Z,-0.30
2018-03-03T03:47:34.745Z,-0.30
2018-03-03T03:50:02.219Z,-0.30
2018-03-03T03:52:29.669Z,-0.40
2018-03-03T03:54:57.133Z,-0.40
2018-03-03T03:57:24.598Z,-0.40
2018-03-03T03:59:52.069Z,-0.40
2018-03-03T04:02:19.522Z,-0.40
2018-03-03T04:04:46.992Z,-0.40
2018-03-03T04:07:14.457Z,-0.40
2018-03-03T04:09:41.924Z,-0.40
2018-03-03T04:12:09.411Z,-0.50
2018-03-03T04:14:36.872Z,-0.50
2018-03-03T04:17:04.773Z,-0.50
2018-03-03T04:19:32.221Z,-0.50
2018-03-03T04:21:59.668Z,-0.50
2018-03-03T04:24:27.137Z,-0.50
2018-03-03T04:26:54.586Z,-0.60
2018-03-03T04:29:22.053Z,-0.60
2018-03-03T04:31:49.531Z,-0.60
2018-03-03T04:34:16.991Z,-0.70
2018-03-03T04:36:44.464Z,-0.70
2018-03-03T04:39:14.192Z,-0.60
2018-03-03T04:41:41.668Z,-0.70
2018-03-03T04:44:09.138Z,-0.60
2018-03-03T04:46:43.920Z,-0.70
2018-03-03T04:49:11.407Z,-0.70
2018-03-03T04:51:38.821Z,-0.70
2018-03-03T04:54:06.285Z,-0.70
2018-03-03T04:56:33.760Z,-0.70
2018-03-03T04:59:03.834Z,-0.70
2018-03-03T05:01:47.103Z,-0.60
2018-03-03T05:04:22.592Z,-0.60
2018-03-03T05:06:50.034Z,-0.70
2018-03-03T05:09:17.502Z,-0.60
2018-03-03T05:11:44.974Z,-0.60
2018-03-03T05:14:13.252Z,-0.60
2018-03-03T05:16:47.460Z,-0.60
2018-03-03T05:19:33.770Z,-0.60
2018-03-03T05:22:07.591Z,-0.60
2018-03-03T05:24:35.033Z,-0.60
2018-03-03T05:27:04.941Z,-0.60
2018-03-03T05:29:38.155Z,-0.60
2018-03-03T05:32:11.326Z,-0.60
2018-03-03T05:34:44.445Z,-0.70
2018-03-03T05:37:26.777Z,-0.70
2018-03-03T05:39:59.963Z,-0.80
2018-03-03T05:42:44.198Z,-0.70
2018-03-03T05:45:27.334Z,-0.70
2018-03-03T05:48:00.486Z,-0.70
2018-03-03T05:50:42.835Z,-0.70
2018-03-03T05:53:16.009Z,-0.70
2018-03-03T05:55:49.077Z,-0.60
2018-03-03T05:58:17.961Z,-0.60
2018-03-03T06:00:58.136Z,-0.50
2018-03-03T06:03:27.044Z,-0.40
2018-03-03T06:06:04.416Z,-0.40
2018-03-03T06:08:32.515Z,-0.30
2018-03-03T06:10:59.965Z,-0.30
2018-03-03T06:13:27.430Z,-0.20
2018-03-03T06:15:55.056Z,-0.20
2018-03-03T06:18:22.901Z,-0.20
2018-03-03T06:20:50.346Z,-0.20
2018-03-03T06:23:17.807Z,-0.20
2018-03-03T06:25:45.274Z,-0.30
2018-03-03T06:28:12.721Z,-0.30
2018-03-03T06:30:40.188Z,-0.30
2018-03-03T06:33:07.637Z,-0.30
2018-03-03T06:35:35.088Z,-0.30
2018-03-03T06:38:02.625Z,-0.40
2018-03-03T06:40:30.071Z,-0.40
2018-03-03T06:42:57.541Z,-0.40
2018-03-03T06:45:24.993Z,-0.40
2018-03-03T06:47:52.446Z,-0.40
2018-03-03T06:50:19.913Z,-0.50
2018-03-03T06:52:47.474Z,-0.50
2018-03-03T06:55:14.954Z,-0.50
2018-03-03T06:57:42.457Z,-0.50
2018-03-03T07:00:10.076Z,-0.50
2018-03-03T07:02:37.517Z,-0.50
2018-03-03T07:05:04.978Z,-0.50
2018-03-03T07:07:32.439Z,-0.50
2018-03-03T07:09:59.899Z,-0.60
2018-03-03T07:12:27.383Z,-0.60
2018-03-03T07:17:59.449Z,-0.60
2018-03-03T07:20:26.892Z,-0.60
2018-03-03T07:22:54.342Z,-0.50
2018-03-03T07:25:21.803Z,-0.50
2018-03-03T07:27:49.261Z,-0.50
2018-03-03T07:30:16.730Z,-0.40
2018-03-03T07:32:44.186Z,-0.40
2018-03-03T07:35:11.633Z,-0.40
2018-03-03T07:37:39.093Z,-0.30
2018-03-03T07:40:06.541Z,-0.20
2018-03-03T07:42:33.993Z,-0.10
2018-03-03T07:45:01.458Z,-0.10
2018-03-03T07:47:29.692Z,0.00
2018-03-03T07:49:57.146Z,0.00
2018-03-03T07:52:24.607Z,0.10
2018-03-03T07:54:52.062Z,0.20
2018-03-03T07:57:19.507Z,0.30
2018-03-03T07:59:46.965Z,0.30
2018-03-03T08:02:14.402Z,0.30
2018-03-03T08:04:42.629Z,0.20
2018-03-03T08:07:10.077Z,0.20
2018-03-03T08:09:37.538Z,0.20
2018-03-03T08:12:05.023Z,0.30
2018-03-03T08:14:32.473Z,0.20
2018-03-03T08:17:00.397Z,0.30
2018-03-03T08:19:27.850Z,0.30
2018-03-03T08:21:55.299Z,0.30
2018-03-03T08:24:22.779Z,0.40
2018-03-03T08:26:50.221Z,0.50
2018-03-03T08:29:17.688Z,0.40
2018-03-03T08:31:46.564Z,0.50
2018-03-03T08:34:14.009Z,0.60
2018-03-03T08:36:41.460Z,0.70
2018-03-03T08:39:08.905Z,0.80
2018-03-03T08:41:36.383Z,0.80
2018-03-03T08:44:03.825Z,0.80
2018-03-03T08:46:31.294Z,0.80
2018-03-03T08:48:58.737Z,0.80
2018-03-03T08:51:26.263Z,0.90
2018-03-03T08:53:53.693Z,0.80
2018-03-03T08:56:21.164Z,0.90
2018-03-03T08:58:48.621Z,1.00
2018-03-03T09:01:16.087Z,1.00
2018-03-03T09:03:43.549Z,1.10
2018-03-03T09:06:11.176Z,1.10
2018-03-03T09:08:38.632Z,1.20
2018-03-03T09:11:06.101Z,1.20
2018-03-03T09:13:33.566Z,1.20
2018-03-03T09:16:01.020Z,1.30
2018-03-03T09:18:28.469Z,1.40
2018-03-03T09:20:56.702Z,1.60
2018-03-03T09:23:24.169Z,1.50
2018-03-03T09:28:24.309Z,1.90
2018-03-03T09:30:51.762Z,2.00
2018-03-03T09:33:19.222Z,2.10
2018-03-03T09:35:46.667Z,2.30
2018-03-03T09:38:14.113Z,2.40
2018-03-03T09:40:41.561Z,2.40
2018-03-03T09:43:09.149Z,2.30
2018-03-03T09:45:36.622Z,2.20
2018-03-03T09:48:04.070Z,2.30
2018-03-03T09:50:31.529Z,2.40
2018-03-03T09:52:59.008Z,2.50
2018-03-03T09:55:26.437Z,2.50
2018-03-03T09:57:53.893Z,2.40
2018-03-03T10:00:21.368Z,2.30
2018-03-03T10:02:48.847Z,2.30
2018-03-03T10:05:16.294Z,2.50
2018-03-03T10:07:43.763Z,2.60
2018-03-03T10:10:11.286Z,2.70
2018-03-03T10:12:38.740Z,2.90
2018-03-03T10:15:06.255Z,3.00
2018-03-03T10:17:33.674Z,3.00
2018-03-03T10:20:01.127Z,3.00
2018-03-03T10:22:28.576Z,2.90
2018-03-03T10:24:56.021Z,2.90
2018-03-03T10:27:23.472Z,3.00
2018-03-03T10:29:50.917Z,3.10
2018-03-03T10:32:18.376Z,3.10
2018-03-03T10:34:45.825Z,3.20
2018-03-03T10:37:13.269Z,3.30
2018-03-03T10:39:41.495Z,3.30
2018-03-03T10:42:08.955Z,3.30
2018-03-03T10:44:36.394Z,3.40
2018-03-03T10:47:03.856Z,3.20
2018-03-03T10:49:31.318Z,3.00
2018-03-03T10:51:58.788Z,3.00
2018-03-03T10:54:26.220Z,3.10
2018-03-03T10:56:53.768Z,3.10
2018-03-03T10:59:22.001Z,3.50
2018-03-03T11:01:49.484Z,3.40
2018-03-03T11:04:16.942Z,3.70
2018-03-03T11:06:44.405Z,3.80
2018-03-03T11:09:11.857Z,4.00
2018-03-03T11:11:39.321Z,4.10
2018-03-03T11:14:06.789Z,4.20
2018-03-03T11:16:34.234Z,4.30
2018-03-03T11:19:01.705Z,4.50
2018-03-03T11:21:29.172Z,4.70
2018-03-03T11:23:56.615Z,4.90
2018-03-03T11:26:24.076Z,5.00
2018-03-03T11:28:51.531Z,5.10
2018-03-03T11:31:19.018Z,5.10
2018-03-03T11:33:46.454Z,5.30
2018-03-03T11:36:13.896Z,5.50
2018-03-03T11:38:41.348Z,5.60
2018-03-03T11:41:08.804Z,5.70
2018-03-03T11:43:37.034Z,5.60
2018-03-03T11:46:04.478Z,5.50
2018-03-03T11:48:31.945Z,5.60
2018-03-03T11:50:59.401Z,5.40
2018-03-03T11:53:26.861Z,5.40
2018-03-03T11:55:54.317Z,5.30
2018-03-03T11:58:21.790Z,5.30
2018-03-03T12:00:49.574Z,5.20
2018-03-03T12:03:17.042Z,5.00
2018-03-03T12:05:44.790Z,4.90
2018-03-03T12:08:12.250Z,4.90
2018-03-03T12:10:40.145Z,5.00
2018-03-03T12:13:09.129Z,4.90
2018-03-03T12:15:36.582Z,4.90
2018-03-03T12:18:04.042Z,5.00
2018-03-03T12:20:31.482Z,4.90
2018-03-03T12:22:58.926Z,4.90
2018-03-03T12:25:26.378Z,4.90
2018-03-03T12:27:53.842Z,4.90
2018-03-03T12:30:21.301Z,4.90
2018-03-03T12:32:48.749Z,4.90
2018-03-03T12:35:16.221Z,4.90
2018-03-03T12:37:43.662Z,4.90
2018-03-03T12:40:11.128Z,4.90
2018-03-03T12:42:38.586Z,4.90
2018-03-03T12:45:13.980Z,4.90
2018-03-03T12:47:41.457Z,4.80
2018-03-03T12:50:08.914Z,4.90
2018-03-03T12:52:36.392Z,4.90
2018-03-03T12:55:03.850Z,4.90
2018-03-03T12:57:34.130Z,5.00
2018-03-03T13:00:01.598Z,4.90
2018-03-03T13:02:29.055Z,5.00
2018-03-03T13:04:57.098Z,5.20
2018-03-03T13:07:24.549Z,5.30
2018-03-03T13:09:54.561Z,5.40
2018-03-03T13:12:22.054Z,5.50
2018-03-03T13:14:49.490Z,5.60
2018-03-03T13:17:16.958Z,5.60
2018-03-03T13:19:44.410Z,5.80
2018-03-03T13:22:11.890Z,5.80
2018-03-03T13:24:39.341Z,5.70
2018-03-03T13:27:08.605Z,5.70
2018-03-03T13:29:36.078Z,5.70
2018-03-03T13:32:03.527Z,5.80
2018-03-03T13:34:31.740Z,5.80
2018-03-03T13:36:59.198Z,5.80
2018-03-03T13:39:26.658Z,5.90
2018-03-03T13:41:54.107Z,6.00
2018-03-03T13:44:21.567Z,6.00
2018-03-03T13:46:49.020Z,6.00
2018-03-03T13:49:16.645Z,5.90
2018-03-03T13:51:44.116Z,6.00
2018-03-03T13:54:11.553Z,6.00
2018-03-03T13:56:39.021Z,6.10
2018-03-03T13:59:06.473Z,6.00
2018-03-03T14:01:33.931Z,5.90
2018-03-03T14:04:01.386Z,6.00
2018-03-03T14:06:28.880Z,6.10
2018-03-03T14:08:56.288Z,6.10
2018-03-03T14:11:23.743Z,6.20
2018-03-03T14:13:51.196Z,6.20
2018-03-03T14:16:18.641Z,6.20
2018-03-03T14:18:46.078Z,6.20
2018-03-03T14:21:13.550Z,6.20
2018-03-03T14:23:41.010Z,6.30
2018-03-03T14:26:08.457Z,6.30
2018-03-03T14:28:35.913Z,6.30
2018-03-03T14:31:03.380Z,6.40
2018-03-03T14:33:30.824Z,6.40
2018-03-03T14:35:58.299Z,6.50
2018-03-03T14:38:25.737Z,6.60
2018-03-03T14:40:53.178Z,6.90
2018-03-03T14:43:20.648Z,7.20
2018-03-03T14:45:48.189Z,7.20
2018-03-03T14:48:15.658Z,7.20
2018-03-03T14:50:43.096Z,7.00
2018-03-03T14:53:11.313Z,6.70
2018-03-03T14:58:36.800Z,6.80
2018-03-03T15:01:04.251Z,7.40
2018-03-03T15:03:31.715Z,7.80
2018-03-03T15:05:59.173Z,7.60
2018-03-03T15:08:26.618Z,7.20
2018-03-03T15:10:54.090Z,6.90
2018-03-03T15:13:21.535Z,6.70
2018-03-03T15:15:48.992Z,7.10
2018-03-03T15:18:16.433Z,7.60
2018-03-03T15:20:44.033Z,7.90
2018-03-03T15:23:11.515Z,7.70
2018-03-03T15:25:38.954Z,7.30
2018-03-03T15:28:06.393Z,7.00
2018-03-03T15:30:33.857Z,6.80
2018-03-03T15:33:01.317Z,6.60
2018-03-03T15:35:28.752Z,6.40
2018-03-03T15:37:56.200Z,6.20
2018-03-03T15:40:23.653Z,6.00
2018-03-03T15:42:51.118Z,5.80
2018-03-03T15:45:18.581Z,5.70
2018-03-03T15:47:46.034Z,5.50
2018-03-03T15:50:13.484Z,5.40
2018-03-03T15:52:40.927Z,5.30
2018-03-03T15:55:08.396Z,5.20
2018-03-03T15:57:35.852Z,5.20
2018-03-03T16:00:03.290Z,5.10
2018-03-03T16:02:30.745Z,5.00
2018-03-03T16:04:58.194Z,4.90
2018-03-03T16:07:25.629Z,4.80
2018-03-03T16:09:53.123Z,4.70
2018-03-03T16:12:20.587Z,4.70
2018-03-03T16:14:48.027Z,4.60
2018-03-03T16:17:16.279Z,4.50
2018-03-03T16:19:43.746Z,4.40
2018-03-03T16:22:11.213Z,4.40
2018-03-03T16:24:38.657Z,4.30
2018-03-03T16:27:06.108Z,4.20
2018-03-03T16:29:33.568Z,4.10
2018-03-03T16:32:01.009Z,4.00
2018-03-03T16:34:28.478Z,3.90
2018-03-03T16:36:55.935Z,3.80
2018-03-03T16:39:23.396Z,3.70
2018-03-03T16:41:56.386Z,3.60
2018-03-03T16:44:23.838Z,3.50
2018-03-03T16:46:51.366Z,3.40
2018-03-03T16:49:18.786Z,3.30
2018-03-03T16:51:46.231Z,3.20
2018-03-03T16:54:15.043Z,3.10
2018-03-03T16:56:42.563Z,3.00
2018-03-03T16:59:10.012Z,2.90
2018-03-03T17:01:39.630Z,2.90
2018-03-03T17:04:07.073Z,2.80
2018-03-03T17:06:34.532Z,2.80
2018-03-03T17:09:02.782Z,2.70
2018-03-03T17:11:30.247Z,2.60
2018-03-03T17:13:57.730Z,2.60
2018-03-03T17:16:25.166Z,2.60
2018-03-03T17:18:52.631Z,2.60
2018-03-03T17:21:20.152Z,2.50
2018-03-03T17:23:47.637Z,2.60
2018-03-03T17:26:15.070Z,2.60
2018-03-03T17:28:42.533Z,2.50
2018-03-03T17:31:10.118Z,2.40
2018-03-03T17:33:37.562Z,2.50
2018-03-03T17:36:05.017Z,2.50
2018-03-03T17:38:32.479Z,2.60
2018-03-03T17:41:00.751Z,2.50
2018-03-03T17:43:28.202Z,2.50
2018-03-03T17:45:55.652Z,2.50
2018-03-03T17:48:23.133Z,2.50
2018-03-03T17:50:50.607Z,2.40
2018-03-03T17:53:18.096Z,2.40
2018-03-03T17:55:45.555Z,2.30
2018-03-03T17:58:12.997Z,2.20
2018-03-03T18:00:40.456Z,2.20
2018-03-03T18:03:07.901Z,2.20
2018-03-03T18:05:36.107Z,2.30
2018-03-03T18:08:03.561Z,2.20
2018-03-03T18:10:31.013Z,2.40
2018-03-03T18:12:58.479Z,2.50
2018-03-03T18:15:25.932Z,2.50
2018-03-03T18:17:55.761Z,2.50
2018-03-03T18:20:23.222Z,2.50
2018-03-03T18:22:50.666Z,2.60
2018-03-03T18:25:18.128Z,2.50
2018-03-03T18:27:45.569Z,2.50
2018-03-03T18:30:13.040Z,2.50
2018-03-03T18:32:40.508Z,2.50
2018-03-03T18:35:07.957Z,2.50
2018-03-03T18:37:35.415Z,2.50
2018-03-03T18:40:02.861Z,2.50
2018-03-03T18:42:30.319Z,2.40
2018-03-03T18:44:57.784Z,2.40
2018-03-03T18:47:25.338Z,2.40
2018-03-03T18:49:52.809Z,2.30
2018-03-03T18:52:20.271Z,2.40
2018-03-03T18:54:47.733Z,2.30
2018-03-03T18:57:15.209Z,2.30
2018-03-03T18:59:42.644Z,2.30
2018-03-03T19:02:10.112Z,2.30
2018-03-03T19:04:37.564Z,2.30
2018-03-03T19:07:05.011Z,2.40
2018-03-03T19:09:32.483Z,2.40
2018-03-03T19:11:59.922Z,2.40
2018-03-03T19:14:27.390Z,2.40
2018-03-03T19:16:54.833Z,2.40
2018-03-03T19:19:22.291Z,2.40
2018-03-03T19:21:49.761Z,2.40
2018-03-03T19:24:24.487Z,2.40
2018-03-03T19:26:53.781Z,2.40
2018-03-03T19:29:22.021Z,2.40
2018-03-03T19:31:49.476Z,2.30
2018-03-03T19:34:16.942Z,2.40
2018-03-03T19:39:20.305Z,2.40
2018-03-03T19:41:47.771Z,2.40
2018-03-03T19:44:15.215Z,2.30
2018-03-03T19:46:46.179Z,2.30
2018-03-03T19:49:15.166Z,2.30
2018-03-03T19:51:42.608Z,2.30
2018-03-03T19:54:10.063Z,2.30
2018-03-03T19:56:37.516Z,2.30
2018-03-03T19:59:04.988Z,2.20
2018-03-03T20:01:32.475Z,2.20
2018-03-03T20:03:59.927Z,2.20
2018-03-03T20:06:27.386Z,2.20
2018-03-03T20:08:54.848Z,2.20
2018-03-03T20:11:22.318Z,2.20
2018-03-03T20:13:49.785Z,2.10
2018-03-03T20:16:17.433Z,2.10
2018-03-03T20:18:44.898Z,2.10
2018-03-03T20:21:13.126Z,2.10
2018-03-03T20:23:40.594Z,2.00
2018-03-03T20:26:08.040Z,2.10
2018-03-03T20:28:35.506Z,2.10
2018-03-03T20:31:02.976Z,2.10
2018-03-03T20:33:30.416Z,2.10
2018-03-03T20:35:57.877Z,2.10
2018-03-03T20:38:25.322Z,2.10
2018-03-03T20:40:52.786Z,2.00
2018-03-03T20:43:20.240Z,2.00
2018-03-03T20:45:47.684Z,2.00
2018-03-03T20:48:15.917Z,2.10
2018-03-03T20:50:43.361Z,2.00
2018-03-03T20:53:10.855Z,2.10
2018-03-03T20:55:38.301Z,2.20
2018-03-03T20:58:05.779Z,2.20
2018-03-03T21:00:33.226Z,2.30
2018-03-03T21:03:01.125Z,2.30
2018-03-03T21:05:28.604Z,2.30
2018-03-03T21:07:56.049Z,2.20
2018-03-03T21:10:23.530Z,2.20
2018-03-03T21:12:50.985Z,2.20
2018-03-03T21:15:18.428Z,2.20
2018-03-03T21:17:45.897Z,2.10
2018-03-03T21:20:13.354Z,2.10
2018-03-03T21:22:40.830Z,2.10
2018-03-03T21:25:08.295Z,2.10
2018-03-03T21:27:35.736Z,2.10
2018-03-03T21:30:03.204Z,2.10
2018-03-03T21:32:30.667Z,2.00
2018-03-03T21:34:58.114Z,2.00
2018-03-03T21:37:25.587Z,2.00
2018-03-03T21:39:53.044Z,2.00
2018-03-03T21:42:20.513Z,2.00
2018-03-03T21:44:47.951Z,2.10
2018-03-03T21:47:15.408Z,2.10
2018-03-03T21:49:42.864Z,2.10
2018-03-03T21:52:10.318Z,2.20
2018-03-03T21:54:37.766Z,2.20
2018-03-03T21:57:05.200Z,2.30
2018-03-03T21:59:33.435Z,2.30
2018-03-03T22:02:00.897Z,2.20
2018-03-03T22:04:28.338Z,2.30
2018-03-03T22:06:55.809Z,2.30
2018-03-03T22:09:23.278Z,2.30
2018-03-03T22:11:50.738Z,2.30
2018-03-03T22:14:18.206Z,2.30
2018-03-03T22:16:46.528Z,2.30
2018-03-03T22:19:16.086Z,2.30
2018-03-03T22:21:43.546Z,2.20
2018-03-03T22:24:11.008Z,2.20
2018-03-03T22:26:38.478Z,2.20
2018-03-03T22:29:05.917Z,2.30
2018-03-03T22:31:33.387Z,2.30
2018-03-03T22:34:00.858Z,2.30
2018-03-03T22:36:28.296Z,2.30
2018-03-03T22:38:55.917Z,2.30
2018-03-03T22:41:23.378Z,2.30
2018-03-03T22:43:50.836Z,2.30
2018-03-03T22:46:18.321Z,2.30
2018-03-03T22:48:45.778Z,2.30
2018-03-03T22:51:13.237Z,2.30
2018-03-03T22:53:40.701Z,2.30
2018-03-03T22:56:08.154Z,2.30
2018-03-03T22:58:35.608Z,2.30
2018-03-03T23:01:03.064Z,2.30
2018-03-03T23:03:30.533Z,2.30
2018-03-03T23:05:58.023Z,2.40
2018-03-03T23:08:25.425Z,2.40
2018-03-03T23:10:52.882Z,2.50
2018-03-03T23:13:20.338Z,2.50
2018-03-03T23:15:47.816Z,2.50
2018-03-03T23:18:16.184Z,2.60
2018-03-03T23:20:43.641Z,2.60
2018-03-03T23:23:11.119Z,2.60
2018-03-03T23:25:38.557Z,2.60
2018-03-03T23:28:06.030Z,2.60
2018-03-03T23:30:33.478Z,2.60
2018-03-03T23:33:00.936Z,2.60
2018-03-03T23:35:28.392Z,2.60
2018-03-03T23:37:55.866Z,2.70
2018-03-03T23:40:23.334Z,2.70
2018-03-03T23:42:50.795Z,2.70
2018-03-03T23:45:18.251Z,2.70
2018-03-03T23:47:45.718Z,2.70
2018-03-03T23:50:13.154Z,2.70
2018-03-03T23:52:40.639Z,2.70
2018-03-03T23:55:08.084Z,2.70
2018-03-03T23:57:35.536Z,2.80
